sensor_id;sensor_type;location;lat;lon;timestamp;temperature;humidity
7902;DHT22;3996;49.674;10.716;2023-03-01T00:01:46;0.10;32.60
7902;DHT22;3996;49.674;10.716;2023-03-01T00:04:12;0.10;31.90
7902;DHT22;3996;49.674;10.716;2023-03-01T00:06:38;0.20;32.00
7902;DHT22;3996;49.674;10.716;2023-03-01T00:09:03;0.20;32.10
7902;DHT22;3996;49.674;10.716;2023-03-01T00:11:31;0.30;31.50
7902;DHT22;3996;49.674;10.716;2023-03-01T00:13:59;0.20;32.00
7902;DHT22;3996;49.674;10.716;2023-03-01T00:16:32;0.20;31.40
7902;DHT22;3996;49.674;10.716;2023-03-01T00:18:58;0.20;31.50
7902;DHT22;3996;49.674;10.716;2023-03-01T00:21:25;0.20;31.50
7902;DHT22;3996;49.674;10.716;2023-03-01T00:23:51;0.10;31.90
7902;DHT22;3996;49.674;10.716;2023-03-01T00:26:17;0.10;31.70
7902;DHT22;3996;49.674;10.716;2023-03-01T00:28:44;0.10;31.70
7902;DHT22;3996;49.674;10.716;2023-03-01T00:31:15;0.00;31.70
7902;DHT22;3996;49.674;10.716;2023-03-01T00:33:41;0.10;31.90
7902;DHT22;3996;49.674;10.716;2023-03-01T00:36:07;0.10;32.10
7902;DHT22;3996;49.674;10.716;2023-03-01T00:38:41;0.10;31.80
7902;DHT22;3996;49.674;10.716;2023-03-01T00:41:11;0.00;32.00
7902;DHT22;3996;49.674;10.716;2023-03-01T00:43:37;0.10;31.80
7902;DHT22;3996;49.674;10.716;2023-03-01T00:46:14;0.10;31.90
7902;DHT22;3996;49.674;10.716;2023-03-01T00:48:41;0.00;31.30
7902;DHT22;3996;49.674;10.716;2023-03-01T00:51:15;0.00;31.10
7902;DHT22;3996;49.674;10.716;2023-03-01T00:53:41;0.00;31.40
7902;DHT22;3996;49.674;10.716;2023-03-01T00:56:09;-0.10;31.60
7902;DHT22;3996;49.674;10.716;2023-03-01T00:58:35;-0.10;32.30
7902;DHT22;3996;49.674;10.716;2023-03-01T01:01:07;-0.10;32.20
7902;DHT22;3996;49.674;10.716;2023-03-01T01:06:18;-0.10;31.10
7902;DHT22;3996;49.674;10.716;2023-03-01T01:08:44;-0.10;31.70
7902;DHT22;3996;49.674;10.716;2023-03-01T01:11:10;-0.20;32.10
7902;DHT22;3996;49.674;10.716;2023-03-01T01:13:37;-0.20;31.90
7902;DHT22;3996;49.674;10.716;2023-03-01T01:16:02;-0.30;32.30
7902;DHT22;3996;49.674;10.716;2023-03-01T01:18:28;-0.20;32.60
7902;DHT22;3996;49.674;10.716;2023-03-01T01:20:54;-0.30;32.10
7902;DHT22;3996;49.674;10.716;2023-03-01T01:23:19;-0.30;32.20
7902;DHT22;3996;49.674;10.716;2023-03-01T01:25:45;-0.40;32.50
7902;DHT22;3996;49.674;10.716;2023-03-01T01:28:10;-0.30;32.50
7902;DHT22;3996;49.674;10.716;2023-03-01T01:30:36;-0.30;32.30
7902;DHT22;3996;49.674;10.716;2023-03-01T01:33:02;-0.40;32.30
7902;DHT22;3996;49.674;10.716;2023-03-01T01:35:27;-0.40;33.10
7902;DHT22;3996;49.674;10.716;2023-03-01T01:37:53;-0.30;32.50
7902;DHT22;3996;49.674;10.716;2023-03-01T01:40:19;-0.40;32.50
7902;DHT22;3996;49.674;10.716;2023-03-01T01:42:44;-0.40;33.10
7902;DHT22;3996;49.674;10.716;2023-03-01T01:45:40;-0.40;33.10
7902;DHT22;3996;49.674;10.716;2023-03-01T01:48:13;-0.50;33.20
7902;DHT22;3996;49.674;10.716;2023-03-01T01:50:40;-0.50;34.00
7902;DHT22;3996;49.674;10.716;2023-03-01T01:53:10;-0.50;32.80
7902;DHT22;3996;49.674;10.716;2023-03-01T01:55:41;-0.60;33.50
7902;DHT22;3996;49.674;10.716;2023-03-01T01:58:09;-0.60;33.90
7902;DHT22;3996;49.674;10.716;2023-03-01T02:00:37;-0.50;33.30
7902;DHT22;3996;49.674;10.716;2023-03-01T02:03:08;-0.60;33.50
7902;DHT22;3996;49.674;10.716;2023-03-01T02:05:50;-0.70;34.00
7902;DHT22;3996;49.674;10.716;2023-03-01T02:08:20;-0.70;34.20
7902;DHT22;3996;49.674;10.716;2023-03-01T02:10:46;-0.60;33.80
7902;DHT22;3996;49.674;10.716;2023-03-01T02:13:13;-0.70;33.80
7902;DHT22;3996;49.674;10.716;2023-03-01T02:15:40;-0.60;33.80
7902;DHT22;3996;49.674;10.716;2023-03-01T02:18:07;-0.70;33.90
7902;DHT22;3996;49.674;10.716;2023-03-01T02:23:02;-0.60;33.40
7902;DHT22;3996;49.674;10.716;2023-03-01T02:28:34;-0.70;33.60
7902;DHT22;3996;49.674;10.716;2023-03-01T02:31:01;-0.80;33.50
7902;DHT22;3996;49.674;10.716;2023-03-01T02:33:46;-0.80;33.90
7902;DHT22;3996;49.674;10.716;2023-03-01T02:36:19;-0.80;33.90
7902;DHT22;3996;49.674;10.716;2023-03-01T02:38:47;-0.90;34.00
7902;DHT22;3996;49.674;10.716;2023-03-01T02:41:15;-0.80;33.90
7902;DHT22;3996;49.674;10.716;2023-03-01T02:43:41;-0.80;34.30
7902;DHT22;3996;49.674;10.716;2023-03-01T02:46:17;-0.80;34.00
7902;DHT22;3996;49.674;10.716;2023-03-01T02:48:52;-0.80;33.40
7902;DHT22;3996;49.674;10.716;2023-03-01T02:56:18;-0.80;34.00
7902;DHT22;3996;49.674;10.716;2023-03-01T02:58:44;-0.80;33.60
7902;DHT22;3996;49.674;10.716;2023-03-01T03:01:19;-0.70;33.50
7902;DHT22;3996;49.674;10.716;2023-03-01T03:03:45;-0.70;33.50
7902;DHT22;3996;49.674;10.716;2023-03-01T03:06:11;-0.70;33.20
7902;DHT22;3996;49.674;10.716;2023-03-01T03:08:37;-0.80;33.00
7902;DHT22;3996;49.674;10.716;2023-03-01T03:11:02;-0.80;33.00
7902;DHT22;3996;49.674;10.716;2023-03-01T03:13:28;-0.70;33.40
7902;DHT22;3996;49.674;10.716;2023-03-01T03:15:55;-0.70;33.50
7902;DHT22;3996;49.674;10.716;2023-03-01T03:18:22;-0.70;33.30
7902;DHT22;3996;49.674;10.716;2023-03-01T03:20:48;-0.60;34.20
7902;DHT22;3996;49.674;10.716;2023-03-01T03:23:21;-0.70;33.50
7902;DHT22;3996;49.674;10.716;2023-03-01T03:25:50;-0.70;33.70
7902;DHT22;3996;49.674;10.716;2023-03-01T03:28:17;-0.70;33.50
7902;DHT22;3996;49.674;10.716;2023-03-01T03:30:43;-0.70;33.40
7902;DHT22;3996;49.674;10.716;2023-03-01T03:33:10;-0.70;33.60
7902;DHT22;3996;49.674;10.716;2023-03-01T03:35:42;-0.70;33.50
7902;DHT22;3996;49.674;10.716;2023-03-01T03:38:10;-0.80;33.50
7902;DHT22;3996;49.674;10.716;2023-03-01T03:40:46;-0.70;33.70
7902;DHT22;3996;49.674;10.716;2023-03-01T03:43:22;-0.70;33.60
7902;DHT22;3996;49.674;10.716;2023-03-01T03:45:50;-0.80;33.50
7902;DHT22;3996;49.674;10.716;2023-03-01T03:48:16;-0.80;34.00
7902;DHT22;3996;49.674;10.716;2023-03-01T03:50:48;-0.80;33.50
7902;DHT22;3996;49.674;10.716;2023-03-01T03:53:14;-0.70;33.30
7902;DHT22;3996;49.674;10.716;2023-03-01T03:55:40;-0.80;33.70
7902;DHT22;3996;49.674;10.716;2023-03-01T03:58:08;-0.80;33.80
7902;DHT22;3996;49.674;10.716;2023-03-01T04:00:39;-0.70;33.60
7902;DHT22;3996;49.674;10.716;2023-03-01T04:03:05;-0.70;33.30
7902;DHT22;3996;49.674;10.716;2023-03-01T04:05:32;-0.70;33.20
7902;DHT22;3996;49.674;10.716;2023-03-01T04:07:58;-0.70;33.50
7902;DHT22;3996;49.674;10.716;2023-03-01T04:10:43;-0.80;33.70
7902;DHT22;3996;49.674;10.716;2023-03-01T04:13:12;-0.80;33.70
7902;DHT22;3996;49.674;10.716;2023-03-01T04:15:39;-0.80;33.80
7902;DHT22;3996;49.674;10.716;2023-03-01T04:18:05;-0.80;33.60
7902;DHT22;3996;49.674;10.716;2023-03-01T04:20:33;-0.80;33.70
7902;DHT22;3996;49.674;10.716;2023-03-01T04:23:04;-0.80;33.40
7902;DHT22;3996;49.674;10.716;2023-03-01T04:25:40;-0.80;33.60
7902;DHT22;3996;49.674;10.716;2023-03-01T04:28:07;-0.90;33.40
7902;DHT22;3996;49.674;10.716;2023-03-01T04:30:33;-0.90;34.10
7902;DHT22;3996;49.674;10.716;2023-03-01T04:33:02;-0.80;33.50
7902;DHT22;3996;49.674;10.716;2023-03-01T04:35:29;-0.90;33.70
7902;DHT22;3996;49.674;10.716;2023-03-01T04:37:54;-0.90;34.00
7902;DHT22;3996;49.674;10.716;2023-03-01T04:40:20;-1.00;34.00
7902;DHT22;3996;49.674;10.716;2023-03-01T04:42:46;-1.00;34.30
7902;DHT22;3996;49.674;10.716;2023-03-01T04:45:12;-1.00;34.20
7902;DHT22;3996;49.674;10.716;2023-03-01T04:47:42;-1.00;34.40
7902;DHT22;3996;49.674;10.716;2023-03-01T04:50:10;-1.10;34.60
7902;DHT22;3996;49.674;10.716;2023-03-01T04:52:37;-1.00;34.40
7902;DHT22;3996;49.674;10.716;2023-03-01T04:55:03;-1.00;34.70
7902;DHT22;3996;49.674;10.716;2023-03-01T04:57:29;-1.10;34.70
7902;DHT22;3996;49.674;10.716;2023-03-01T04:59:55;-1.20;34.90
7902;DHT22;3996;49.674;10.716;2023-03-01T05:02:20;-1.20;35.40
7902;DHT22;3996;49.674;10.716;2023-03-01T05:04:46;-1.20;35.70
7902;DHT22;3996;49.674;10.716;2023-03-01T05:07:12;-1.10;35.30
7902;DHT22;3996;49.674;10.716;2023-03-01T05:09:38;-1.10;35.00
7902;DHT22;3996;49.674;10.716;2023-03-01T05:12:04;-1.10;36.20
7902;DHT22;3996;49.674;10.716;2023-03-01T05:14:30;-1.20;34.90
7902;DHT22;3996;49.674;10.716;2023-03-01T05:16:55;-1.20;35.20
7902;DHT22;3996;49.674;10.716;2023-03-01T05:19:29;-1.20;35.70
7902;DHT22;3996;49.674;10.716;2023-03-01T05:21:56;-1.30;35.40
7902;DHT22;3996;49.674;10.716;2023-03-01T05:24:33;-1.40;35.30
7902;DHT22;3996;49.674;10.716;2023-03-01T05:26:59;-1.40;35.80
7902;DHT22;3996;49.674;10.716;2023-03-01T05:29:26;-1.50;36.10
7902;DHT22;3996;49.674;10.716;2023-03-01T05:31:54;-1.50;36.40
7902;DHT22;3996;49.674;10.716;2023-03-01T05:34:29;-1.50;36.90
7902;DHT22;3996;49.674;10.716;2023-03-01T05:36:55;-1.40;36.70
7902;DHT22;3996;49.674;10.716;2023-03-01T05:39:21;-1.30;36.60
7902;DHT22;3996;49.674;10.716;2023-03-01T05:41:48;-1.30;36.30
7902;DHT22;3996;49.674;10.716;2023-03-01T05:44:17;-1.30;36.00
7902;DHT22;3996;49.674;10.716;2023-03-01T05:46:42;-1.30;35.90
7902;DHT22;3996;49.674;10.716;2023-03-01T05:49:08;-1.40;35.60
7902;DHT22;3996;49.674;10.716;2023-03-01T05:51:33;-1.50;35.40
7902;DHT22;3996;49.674;10.716;2023-03-01T05:53:59;-1.50;36.30
7902;DHT22;3996;49.674;10.716;2023-03-01T05:56:25;-1.50;35.80
7902;DHT22;3996;49.674;10.716;2023-03-01T05:58:50;-1.50;36.60
7902;DHT22;3996;49.674;10.716;2023-03-01T06:01:16;-1.50;36.50
7902;DHT22;3996;49.674;10.716;2023-03-01T06:03:42;-1.50;36.10
7902;DHT22;3996;49.674;10.716;2023-03-01T06:06:07;-1.50;36.30
7902;DHT22;3996;49.674;10.716;2023-03-01T06:08:33;-1.50;36.30
7902;DHT22;3996;49.674;10.716;2023-03-01T06:10:58;-1.50;36.40
7902;DHT22;3996;49.674;10.716;2023-03-01T06:13:24;-1.50;36.70
7902;DHT22;3996;49.674;10.716;2023-03-01T06:15:50;-1.40;36.00
7902;DHT22;3996;49.674;10.716;2023-03-01T06:18:16;-1.30;36.30
7902;DHT22;3996;49.674;10.716;2023-03-01T06:20:41;-1.10;35.50
7902;DHT22;3996;49.674;10.716;2023-03-01T06:23:07;-1.00;35.10
7902;DHT22;3996;49.674;10.716;2023-03-01T06:25:35;-0.30;34.80
7902;DHT22;3996;49.674;10.716;2023-03-01T06:28:02;0.40;31.80
7902;DHT22;3996;49.674;10.716;2023-03-01T06:30:27;1.20;29.50
7902;DHT22;3996;49.674;10.716;2023-03-01T06:32:53;1.60;27.70
7902;DHT22;3996;49.674;10.716;2023-03-01T06:35:25;2.40;26.60
7902;DHT22;3996;49.674;10.716;2023-03-01T06:37:55;2.00;25.70
7902;DHT22;3996;49.674;10.716;2023-03-01T06:40:21;2.00;26.10
7902;DHT22;3996;49.674;10.716;2023-03-01T06:42:50;2.20;26.40
7902;DHT22;3996;49.674;10.716;2023-03-01T06:45:18;2.60;24.60
7902;DHT22;3996;49.674;10.716;2023-03-01T06:47:43;3.30;24.60
7902;DHT22;3996;49.674;10.716;2023-03-01T06:50:09;4.50;21.20
7902;DHT22;3996;49.674;10.716;2023-03-01T06:52:35;4.80;19.80
7902;DHT22;3996;49.674;10.716;2023-03-01T06:55:01;5.00;19.50
7902;DHT22;3996;49.674;10.716;2023-03-01T06:57:27;6.00;17.70
7902;DHT22;3996;49.674;10.716;2023-03-01T06:59:53;6.70;16.40
7902;DHT22;3996;49.674;10.716;2023-03-01T07:02:18;7.00;15.10
7902;DHT22;3996;49.674;10.716;2023-03-01T07:04:44;7.60;13.90
7902;DHT22;3996;49.674;10.716;2023-03-01T07:07:11;8.10;13.30
7902;DHT22;3996;49.674;10.716;2023-03-01T07:09:36;8.30;12.90
7902;DHT22;3996;49.674;10.716;2023-03-01T07:12:02;8.70;12.30
7902;DHT22;3996;49.674;10.716;2023-03-01T07:14:28;9.10;11.00
7902;DHT22;3996;49.674;10.716;2023-03-01T07:16:54;9.20;10.80
7902;DHT22;3996;49.674;10.716;2023-03-01T07:19:20;9.50;10.90
7902;DHT22;3996;49.674;10.716;2023-03-01T07:21:46;9.70;9.90
7902;DHT22;3996;49.674;10.716;2023-03-01T07:24:12;9.70;9.90
7902;DHT22;3996;49.674;10.716;2023-03-01T07:26:38;9.90;10.00
7902;DHT22;3996;49.674;10.716;2023-03-01T07:29:06;9.70;8.80
7902;DHT22;3996;49.674;10.716;2023-03-01T07:31:32;9.70;9.90
7902;DHT22;3996;49.674;10.716;2023-03-01T07:33:58;10.20;8.50
7902;DHT22;3996;49.674;10.716;2023-03-01T07:36:23;10.60;8.10
7902;DHT22;3996;49.674;10.716;2023-03-01T07:38:50;10.70;8.30
7902;DHT22;3996;49.674;10.716;2023-03-01T07:41:15;10.60;8.40
7902;DHT22;3996;49.674;10.716;2023-03-01T07:43:41;10.10;7.90
7902;DHT22;3996;49.674;10.716;2023-03-01T07:46:07;9.20;9.20
7902;DHT22;3996;49.674;10.716;2023-03-01T07:48:33;7.60;9.90
7902;DHT22;3996;49.674;10.716;2023-03-01T07:51:02;6.90;11.80
7902;DHT22;3996;49.674;10.716;2023-03-01T07:53:29;6.40;12.80
7902;DHT22;3996;49.674;10.716;2023-03-01T07:56:12;6.60;13.40
7902;DHT22;3996;49.674;10.716;2023-03-01T07:58:41;6.70;14.20
7902;DHT22;3996;49.674;10.716;2023-03-01T08:01:09;7.70;12.60
7902;DHT22;3996;49.674;10.716;2023-03-01T08:03:36;10.10;9.40
7902;DHT22;3996;49.674;10.716;2023-03-01T08:06:03;11.60;7.80
7902;DHT22;3996;49.674;10.716;2023-03-01T08:08:29;12.30;7.00
7902;DHT22;3996;49.674;10.716;2023-03-01T08:11:03;12.40;6.30
7902;DHT22;3996;49.674;10.716;2023-03-01T08:13:30;12.60;6.00
7902;DHT22;3996;49.674;10.716;2023-03-01T08:16:13;12.60;6.20
7902;DHT22;3996;49.674;10.716;2023-03-01T08:18:39;12.80;6.50
7902;DHT22;3996;49.674;10.716;2023-03-01T08:21:07;13.10;5.80
7902;DHT22;3996;49.674;10.716;2023-03-01T08:23:33;13.30;5.70
7902;DHT22;3996;49.674;10.716;2023-03-01T08:26:13;13.30;5.00
7902;DHT22;3996;49.674;10.716;2023-03-01T08:28:40;13.20;5.70
7902;DHT22;3996;49.674;10.716;2023-03-01T08:31:15;13.50;5.60
7902;DHT22;3996;49.674;10.716;2023-03-01T08:33:41;13.60;5.30
7902;DHT22;3996;49.674;10.716;2023-03-01T08:36:06;13.30;5.40
7902;DHT22;3996;49.674;10.716;2023-03-01T08:38:33;13.30;5.60
7902;DHT22;3996;49.674;10.716;2023-03-01T08:41:01;13.00;5.80
7902;DHT22;3996;49.674;10.716;2023-03-01T08:43:27;12.90;6.10
7902;DHT22;3996;49.674;10.716;2023-03-01T08:45:52;12.10;6.00
7902;DHT22;3996;49.674;10.716;2023-03-01T08:48:18;10.60;7.00
7902;DHT22;3996;49.674;10.716;2023-03-01T08:50:43;9.70;8.80
7902;DHT22;3996;49.674;10.716;2023-03-01T08:53:09;9.40;9.10
7902;DHT22;3996;49.674;10.716;2023-03-01T08:55:35;9.80;8.80
7902;DHT22;3996;49.674;10.716;2023-03-01T08:58:00;10.40;7.00
7902;DHT22;3996;49.674;10.716;2023-03-01T09:00:26;11.60;6.20
7902;DHT22;3996;49.674;10.716;2023-03-01T09:02:51;13.00;6.30
7902;DHT22;3996;49.674;10.716;2023-03-01T09:05:17;13.20;5.50
7902;DHT22;3996;49.674;10.716;2023-03-01T09:07:42;13.50;4.60
7902;DHT22;3996;49.674;10.716;2023-03-01T09:10:09;13.90;5.00
7902;DHT22;3996;49.674;10.716;2023-03-01T09:12:35;13.40;4.00
7902;DHT22;3996;49.674;10.716;2023-03-01T09:15:00;13.80;4.90
7902;DHT22;3996;49.674;10.716;2023-03-01T09:17:26;13.50;3.20
7902;DHT22;3996;49.674;10.716;2023-03-01T09:19:51;12.80;4.80
7902;DHT22;3996;49.674;10.716;2023-03-01T09:22:17;12.50;5.30
7902;DHT22;3996;49.674;10.716;2023-03-01T09:24:43;10.80;5.60
7902;DHT22;3996;49.674;10.716;2023-03-01T09:27:09;9.50;7.20
7902;DHT22;3996;49.674;10.716;2023-03-01T09:29:36;9.30;7.10
7902;DHT22;3996;49.674;10.716;2023-03-01T09:32:02;10.80;5.60
7902;DHT22;3996;49.674;10.716;2023-03-01T09:34:28;12.20;5.50
7902;DHT22;3996;49.674;10.716;2023-03-01T09:36:53;13.80;4.20
7902;DHT22;3996;49.674;10.716;2023-03-01T09:39:19;14.40;3.70
7902;DHT22;3996;49.674;10.716;2023-03-01T09:42:00;14.50;2.50
7902;DHT22;3996;49.674;10.716;2023-03-01T09:44:44;13.90;3.50
7902;DHT22;3996;49.674;10.716;2023-03-01T09:47:29;13.50;3.00
7902;DHT22;3996;49.674;10.716;2023-03-01T09:50:11;13.00;2.60
7902;DHT22;3996;49.674;10.716;2023-03-01T09:52:46;13.10;3.30
7902;DHT22;3996;49.674;10.716;2023-03-01T09:55:21;13.60;3.70
7902;DHT22;3996;49.674;10.716;2023-03-01T09:57:55;14.00;3.10
7902;DHT22;3996;49.674;10.716;2023-03-01T10:00:29;14.30;4.70
7902;DHT22;3996;49.674;10.716;2023-03-01T10:03:11;14.50;2.00
7902;DHT22;3996;49.674;10.716;2023-03-01T10:08:29;13.60;3.30
7902;DHT22;3996;49.674;10.716;2023-03-01T10:10:57;14.80;2.90
7902;DHT22;3996;49.674;10.716;2023-03-01T10:13:46;15.30;3.10
7902;DHT22;3996;49.674;10.716;2023-03-01T10:16:22;14.50;3.30
7902;DHT22;3996;49.674;10.716;2023-03-01T10:18:59;12.10;3.00
7902;DHT22;3996;49.674;10.716;2023-03-01T10:21:27;10.80;4.90
7902;DHT22;3996;49.674;10.716;2023-03-01T10:23:53;10.00;6.00
7902;DHT22;3996;49.674;10.716;2023-03-01T10:29:07;10.00;5.40
7902;DHT22;3996;49.674;10.716;2023-03-01T10:31:49;10.30;6.60
7902;DHT22;3996;49.674;10.716;2023-03-01T10:34:21;10.70;5.00
7902;DHT22;3996;49.674;10.716;2023-03-01T10:36:50;10.90;5.30
7902;DHT22;3996;49.674;10.716;2023-03-01T10:39:19;10.90;5.30
7902;DHT22;3996;49.674;10.716;2023-03-01T10:42:01;10.70;5.40
7902;DHT22;3996;49.674;10.716;2023-03-01T10:44:45;10.80;5.60
7902;DHT22;3996;49.674;10.716;2023-03-01T10:52:23;10.20;6.10
7902;DHT22;3996;49.674;10.716;2023-03-01T10:57:41;10.80;6.30
7902;DHT22;3996;49.674;10.716;2023-03-01T11:03:01;11.00;6.00
7902;DHT22;3996;49.674;10.716;2023-03-01T11:05:27;11.10;6.70
7902;DHT22;3996;49.674;10.716;2023-03-01T11:07:59;10.50;5.40
7902;DHT22;3996;49.674;10.716;2023-03-01T11:10:34;9.60;5.50
7902;DHT22;3996;49.674;10.716;2023-03-01T11:13:16;9.70;7.40
7902;DHT22;3996;49.674;10.716;2023-03-01T11:15:42;10.10;6.30
7902;DHT22;3996;49.674;10.716;2023-03-01T11:18:20;10.10;6.60
7902;DHT22;3996;49.674;10.716;2023-03-01T11:20:46;10.20;6.40
7902;DHT22;3996;49.674;10.716;2023-03-01T11:23:14;10.30;6.70
7902;DHT22;3996;49.674;10.716;2023-03-01T11:25:43;10.40;6.00
7902;DHT22;3996;49.674;10.716;2023-03-01T11:28:17;10.70;5.70
7902;DHT22;3996;49.674;10.716;2023-03-01T11:31:08;10.90;5.90
7902;DHT22;3996;49.674;10.716;2023-03-01T11:36:41;11.00;5.80
7902;DHT22;3996;49.674;10.716;2023-03-01T11:44:31;11.00;6.10
7902;DHT22;3996;49.674;10.716;2023-03-01T12:05:49;10.50;6.00
7902;DHT22;3996;49.674;10.716;2023-03-01T12:16:04;11.20;5.80
7902;DHT22;3996;49.674;10.716;2023-03-01T12:18:48;11.30;4.80
7902;DHT22;3996;49.674;10.716;2023-03-01T12:24:33;11.40;5.40
7902;DHT22;3996;49.674;10.716;2023-03-01T12:29:42;11.20;4.90
7902;DHT22;3996;49.674;10.716;2023-03-01T12:35:37;11.50;4.90
7902;DHT22;3996;49.674;10.716;2023-03-01T12:44:01;11.40;5.90
7902;DHT22;3996;49.674;10.716;2023-03-01T12:49:40;10.90;6.20
7902;DHT22;3996;49.674;10.716;2023-03-01T12:54:35;11.40;5.60
7902;DHT22;3996;49.674;10.716;2023-03-01T12:57:21;11.60;6.00
7902;DHT22;3996;49.674;10.716;2023-03-01T13:02:54;11.70;6.10
7902;DHT22;3996;49.674;10.716;2023-03-01T13:09:03;11.80;5.70
7902;DHT22;3996;49.674;10.716;2023-03-01T13:11:02;11.80;6.00
7902;DHT22;3996;49.674;10.716;2023-03-01T13:13:30;11.70;6.50
7902;DHT22;3996;49.674;10.716;2023-03-01T13:15:56;11.60;5.90
7902;DHT22;3996;49.674;10.716;2023-03-01T13:20:50;11.50;6.10
7902;DHT22;3996;49.674;10.716;2023-03-01T13:26:09;11.60;6.40
7902;DHT22;3996;49.674;10.716;2023-03-01T13:28:52;11.50;6.00
7902;DHT22;3996;49.674;10.716;2023-03-01T13:33:51;11.20;6.40
7902;DHT22;3996;49.674;10.716;2023-03-01T13:39:02;11.20;6.10
7902;DHT22;3996;49.674;10.716;2023-03-01T13:44:37;11.30;6.20
7902;DHT22;3996;49.674;10.716;2023-03-01T13:50:01;11.30;6.40
7902;DHT22;3996;49.674;10.716;2023-03-01T13:52:40;11.20;7.10
7902;DHT22;3996;49.674;10.716;2023-03-01T13:57:45;11.30;7.60
7902;DHT22;3996;49.674;10.716;2023-03-01T14:00:45;11.40;7.10
7902;DHT22;3996;49.674;10.716;2023-03-01T14:03:15;11.30;7.20
7902;DHT22;3996;49.674;10.716;2023-03-01T14:05:44;11.30;7.10
7902;DHT22;3996;49.674;10.716;2023-03-01T14:08:22;11.10;7.30
7902;DHT22;3996;49.674;10.716;2023-03-01T14:19:29;11.00;7.40
7902;DHT22;3996;49.674;10.716;2023-03-01T14:22:20;10.90;7.80
7902;DHT22;3996;49.674;10.716;2023-03-01T14:24:52;11.00;8.10
7902;DHT22;3996;49.674;10.716;2023-03-01T14:27:19;11.10;7.90
7902;DHT22;3996;49.674;10.716;2023-03-01T14:29:58;11.10;8.40
7902;DHT22;3996;49.674;10.716;2023-03-01T14:32:27;11.10;8.20
7902;DHT22;3996;49.674;10.716;2023-03-01T14:34:53;11.10;8.10
7902;DHT22;3996;49.674;10.716;2023-03-01T14:37:26;11.00;8.60
7902;DHT22;3996;49.674;10.716;2023-03-01T14:39:52;10.90;8.00
7902;DHT22;3996;49.674;10.716;2023-03-01T14:42:20;10.90;8.80
7902;DHT22;3996;49.674;10.716;2023-03-01T14:44:48;10.70;8.50
7902;DHT22;3996;49.674;10.716;2023-03-01T14:49:50;10.60;8.70
7902;DHT22;3996;49.674;10.716;2023-03-01T14:52:25;10.60;8.10
7902;DHT22;3996;49.674;10.716;2023-03-01T14:54:54;10.80;9.20
7902;DHT22;3996;49.674;10.716;2023-03-01T14:57:25;10.60;8.50
7902;DHT22;3996;49.674;10.716;2023-03-01T14:59:57;10.50;9.40
7902;DHT22;3996;49.674;10.716;2023-03-01T15:02:26;10.30;9.20
7902;DHT22;3996;49.674;10.716;2023-03-01T15:04:55;10.30;8.80
7902;DHT22;3996;49.674;10.716;2023-03-01T15:07:23;10.10;9.40
7902;DHT22;3996;49.674;10.716;2023-03-01T15:09:51;10.00;9.30
7902;DHT22;3996;49.674;10.716;2023-03-01T15:14:57;9.70;10.70
7902;DHT22;3996;49.674;10.716;2023-03-01T15:17:37;9.70;10.90
7902;DHT22;3996;49.674;10.716;2023-03-01T15:20:19;9.60;10.50
7902;DHT22;3996;49.674;10.716;2023-03-01T15:22:51;9.50;11.50
7902;DHT22;3996;49.674;10.716;2023-03-01T15:25:22;9.40;11.60
7902;DHT22;3996;49.674;10.716;2023-03-01T15:27:50;9.10;12.00
7902;DHT22;3996;49.674;10.716;2023-03-01T15:30:33;9.10;11.50
7902;DHT22;3996;49.674;10.716;2023-03-01T15:35:56;9.00;11.80
7902;DHT22;3996;49.674;10.716;2023-03-01T15:38:49;8.90;12.10
7902;DHT22;3996;49.674;10.716;2023-03-01T15:41:25;8.90;12.60
7902;DHT22;3996;49.674;10.716;2023-03-01T15:43:51;8.80;12.40
7902;DHT22;3996;49.674;10.716;2023-03-01T15:46:32;8.80;13.20
7902;DHT22;3996;49.674;10.716;2023-03-01T15:49:05;8.60;12.50
7902;DHT22;3996;49.674;10.716;2023-03-01T15:51:37;8.60;13.10
7902;DHT22;3996;49.674;10.716;2023-03-01T15:54:17;8.60;13.90
7902;DHT22;3996;49.674;10.716;2023-03-01T15:56:43;8.50;13.80
7902;DHT22;3996;49.674;10.716;2023-03-01T15:59:10;8.50;14.10
7902;DHT22;3996;49.674;10.716;2023-03-01T16:01:38;8.60;14.50
7902;DHT22;3996;49.674;10.716;2023-03-01T16:04:04;8.40;14.50
7902;DHT22;3996;49.674;10.716;2023-03-01T16:06:29;8.40;13.90
7902;DHT22;3996;49.674;10.716;2023-03-01T16:08:55;8.30;13.70
7902;DHT22;3996;49.674;10.716;2023-03-01T16:11:21;8.30;14.30
7902;DHT22;3996;49.674;10.716;2023-03-01T16:13:47;8.30;14.50
7902;DHT22;3996;49.674;10.716;2023-03-01T16:16:14;8.20;15.30
7902;DHT22;3996;49.674;10.716;2023-03-01T16:18:46;8.20;15.60
7902;DHT22;3996;49.674;10.716;2023-03-01T16:21:14;8.20;15.50
7902;DHT22;3996;49.674;10.716;2023-03-01T16:23:41;8.10;15.00
7902;DHT22;3996;49.674;10.716;2023-03-01T16:26:07;7.90;15.30
7902;DHT22;3996;49.674;10.716;2023-03-01T16:28:33;7.80;15.00
7902;DHT22;3996;49.674;10.716;2023-03-01T16:30:59;7.80;15.20
7902;DHT22;3996;49.674;10.716;2023-03-01T16:33:26;7.70;15.50
7902;DHT22;3996;49.674;10.716;2023-03-01T16:35:54;7.50;15.90
7902;DHT22;3996;49.674;10.716;2023-03-01T16:38:20;7.40;15.90
7902;DHT22;3996;49.674;10.716;2023-03-01T16:40:50;7.40;15.90
7902;DHT22;3996;49.674;10.716;2023-03-01T16:43:16;7.20;16.30
7902;DHT22;3996;49.674;10.716;2023-03-01T16:45:42;7.20;16.50
7902;DHT22;3996;49.674;10.716;2023-03-01T16:48:10;7.20;16.40
7902;DHT22;3996;49.674;10.716;2023-03-01T16:50:36;7.10;16.50
7902;DHT22;3996;49.674;10.716;2023-03-01T16:53:02;7.00;16.70
7902;DHT22;3996;49.674;10.716;2023-03-01T16:55:28;6.90;17.20
7902;DHT22;3996;49.674;10.716;2023-03-01T16:57:54;6.90;17.30
7902;DHT22;3996;49.674;10.716;2023-03-01T17:00:20;6.90;17.30
7902;DHT22;3996;49.674;10.716;2023-03-01T17:02:46;6.80;17.90
7902;DHT22;3996;49.674;10.716;2023-03-01T17:05:11;6.70;17.80
7902;DHT22;3996;49.674;10.716;2023-03-01T17:07:38;6.70;17.50
7902;DHT22;3996;49.674;10.716;2023-03-01T17:10:05;6.60;18.30
7902;DHT22;3996;49.674;10.716;2023-03-01T17:12:31;6.50;17.70
7902;DHT22;3996;49.674;10.716;2023-03-01T17:14:58;6.40;18.10
7902;DHT22;3996;49.674;10.716;2023-03-01T17:17:23;6.50;17.80
7902;DHT22;3996;49.674;10.716;2023-03-01T17:19:49;6.40;18.10
7902;DHT22;3996;49.674;10.716;2023-03-01T17:22:15;6.30;18.20
7902;DHT22;3996;49.674;10.716;2023-03-01T17:24:42;6.20;18.30
7902;DHT22;3996;49.674;10.716;2023-03-01T17:27:08;6.10;18.20
7902;DHT22;3996;49.674;10.716;2023-03-01T17:29:34;6.10;18.60
7902;DHT22;3996;49.674;10.716;2023-03-01T17:32:00;5.90;18.80
7902;DHT22;3996;49.674;10.716;2023-03-01T17:34:26;5.80;19.40
7902;DHT22;3996;49.674;10.716;2023-03-01T17:36:52;5.70;19.60
7902;DHT22;3996;49.674;10.716;2023-03-01T17:39:18;5.70;20.00
7902;DHT22;3996;49.674;10.716;2023-03-01T17:41:51;5.70;20.20
7902;DHT22;3996;49.674;10.716;2023-03-01T17:44:17;5.70;20.00
7902;DHT22;3996;49.674;10.716;2023-03-01T17:46:43;5.60;20.10
7902;DHT22;3996;49.674;10.716;2023-03-01T17:49:08;5.60;20.30
7902;DHT22;3996;49.674;10.716;2023-03-01T17:51:34;5.60;20.50
7902;DHT22;3996;49.674;10.716;2023-03-01T17:54:00;5.70;20.70
7902;DHT22;3996;49.674;10.716;2023-03-01T17:56:26;5.60;20.90
7902;DHT22;3996;49.674;10.716;2023-03-01T17:58:51;5.40;21.00
7902;DHT22;3996;49.674;10.716;2023-03-01T18:01:19;5.40;21.30
7902;DHT22;3996;49.674;10.716;2023-03-01T18:03:45;5.40;21.70
7902;DHT22;3996;49.674;10.716;2023-03-01T18:06:19;5.30;21.80
7902;DHT22;3996;49.674;10.716;2023-03-01T18:08:46;5.30;21.80
7902;DHT22;3996;49.674;10.716;2023-03-01T18:11:13;5.40;21.60
7902;DHT22;3996;49.674;10.716;2023-03-01T18:13:39;5.40;21.70
7902;DHT22;3996;49.674;10.716;2023-03-01T18:16:06;5.30;21.80